createdAt,value
2018-12-16T00:01:32.553Z,23.40
2018-12-16T00:04:00.760Z,26.53
2018-12-16T00:06:29.193Z,26.53
2018-12-16T00:08:58.128Z,25.80
2018-12-16T00:11:26.416Z,24.40
2018-12-16T00:13:54.757Z,24.90
2018-12-16T00:16:23.024Z,25.20
2018-12-16T00:18:51.250Z,25.70
2018-12-16T00:21:19.478Z,25.23
2018-12-16T00:23:47.725Z,23.43
2018-12-16T00:26:15.972Z,22.33
2018-12-16T00:28:44.368Z,25.57
2018-12-16T00:31:12.666Z,23.90
2018-12-16T00:33:41.040Z,24.00
2018-12-16T00:36:09.396Z,24.13
2018-12-16T00:38:37.653Z,25.10
2018-12-16T00:41:06.031Z,24.33
2018-12-16T00:43:34.256Z,23.30
2018-12-16T00:46:02.627Z,25.90
2018-12-16T00:48:30.860Z,25.70
2018-12-16T00:50:59.105Z,25.10
2018-12-16T00:53:27.297Z,25.23
2018-12-16T00:55:55.630Z,23.97
2018-12-16T00:58:23.865Z,24.40
2018-12-16T01:00:52.259Z,23.83
2018-12-16T01:03:20.562Z,25.67
2018-12-16T01:05:48.741Z,25.30
2018-12-16T01:08:17.020Z,24.20
2018-12-16T01:10:45.244Z,26.83
2018-12-16T01:13:13.567Z,24.97
2018-12-16T01:15:41.942Z,24.60
2018-12-16T01:18:10.180Z,25.10
2018-12-16T01:20:38.493Z,25.73
2018-12-16T01:23:06.717Z,24.23
2018-12-16T01:25:35.172Z,24.40
2018-12-16T01:28:03.503Z,25.30
2018-12-16T01:30:32.176Z,24.80
2018-12-16T01:33:00.400Z,26.10
2018-12-16T01:35:28.626Z,26.50
2018-12-16T01:37:56.945Z,26.20
2018-12-16T01:40:26.419Z,26.43
2018-12-16T01:42:54.730Z,25.50
2018-12-16T01:45:22.964Z,26.33
2018-12-16T01:47:51.231Z,23.77
2018-12-16T01:50:19.556Z,24.80
2018-12-16T01:52:50.314Z,25.30
2018-12-16T01:55:18.113Z,25.67
2018-12-16T01:57:46.440Z,24.80
2018-12-16T02:00:14.873Z,28.40
2018-12-16T02:02:43.140Z,25.30
2018-12-16T02:05:11.605Z,25.80
2018-12-16T02:07:39.935Z,25.27
2018-12-16T02:10:08.403Z,26.17
2018-12-16T02:12:36.655Z,26.77
2018-12-16T02:15:05.288Z,27.63
2018-12-16T02:17:33.520Z,25.70
2018-12-16T02:20:01.828Z,27.40
2018-12-16T02:22:30.045Z,27.07
2018-12-16T02:24:58.252Z,26.97
2018-12-16T02:27:26.568Z,31.07
2018-12-16T02:29:54.752Z,28.37
2018-12-16T02:32:23.145Z,29.60
2018-12-16T02:34:51.347Z,28.50
2018-12-16T02:37:19.574Z,27.67
2018-12-16T02:39:47.953Z,31.90
2018-12-16T02:42:16.230Z,30.53
2018-12-16T02:44:44.421Z,28.80
2018-12-16T02:47:12.690Z,30.27
2018-12-16T02:49:40.960Z,29.63
2018-12-16T02:52:09.228Z,30.83
2018-12-16T02:54:37.496Z,30.70
2018-12-16T02:57:05.684Z,30.90
2018-12-16T02:59:33.947Z,31.93
2018-12-16T03:02:02.232Z,32.33
2018-12-16T03:04:30.610Z,30.20
2018-12-16T03:06:58.989Z,32.67
2018-12-16T03:09:27.260Z,32.33
2018-12-16T03:11:55.496Z,32.20
2018-12-16T03:14:23.821Z,31.97
2018-12-16T03:16:52.094Z,31.30
2018-12-16T03:19:20.332Z,32.30
2018-12-16T03:21:48.657Z,34.23
2018-12-16T03:24:16.960Z,30.47
2018-12-16T03:26:45.186Z,32.10
2018-12-16T03:29:13.493Z,33.73
2018-12-16T03:31:41.709Z,31.03
2018-12-16T03:34:09.995Z,32.80
2018-12-16T03:36:38.223Z,32.80
2018-12-16T03:39:08.049Z,32.33
2018-12-16T03:41:36.511Z,33.93
2018-12-16T03:44:04.728Z,33.07
2018-12-16T03:46:33.168Z,33.90
2018-12-16T03:49:01.423Z,33.87
2018-12-16T03:51:29.712Z,31.87
2018-12-16T03:53:57.948Z,31.13
2018-12-16T03:56:26.217Z,32.67
2018-12-16T03:59:05.867Z,32.70
2018-12-16T04:01:34.114Z,32.87
2018-12-16T04:04:02.443Z,35.37
2018-12-16T04:06:30.706Z,35.13
2018-12-16T04:08:59.012Z,34.50
2018-12-16T04:11:27.240Z,32.27
2018-12-16T04:13:55.618Z,33.13
2018-12-16T04:16:24.144Z,33.93
2018-12-16T04:18:52.376Z,35.97
2018-12-16T04:21:20.658Z,33.53
2018-12-16T04:23:48.894Z,35.23
2018-12-16T04:26:17.105Z,34.50
2018-12-16T04:28:45.357Z,35.77
2018-12-16T04:31:13.652Z,33.87
2018-12-16T04:33:41.888Z,35.03
2018-12-16T04:36:10.286Z,34.70
2018-12-16T04:38:38.562Z,34.17
2018-12-16T04:41:06.912Z,35.37
2018-12-16T04:43:35.288Z,35.30
2018-12-16T04:46:03.682Z,33.10
2018-12-16T04:48:31.995Z,35.77
2018-12-16T04:51:00.232Z,38.00
2018-12-16T04:53:34.835Z,35.57
2018-12-16T04:55:58.790Z,36.00
2018-12-16T04:58:27.105Z,34.77
2018-12-16T05:00:55.292Z,36.33
2018-12-16T05:03:23.620Z,34.80
2018-12-16T05:05:52.023Z,33.80
2018-12-16T05:08:20.297Z,35.07
2018-12-16T05:10:48.548Z,36.73
2018-12-16T05:13:16.839Z,34.93
2018-12-16T05:15:45.245Z,37.30
2018-12-16T05:18:13.456Z,34.50
2018-12-16T05:20:41.675Z,34.97
2018-12-16T05:23:10.061Z,36.30
2018-12-16T05:25:38.268Z,37.30
2018-12-16T05:28:06.564Z,37.20
2018-12-16T05:30:34.896Z,35.63
2018-12-16T05:33:03.292Z,33.80
2018-12-16T05:35:31.615Z,38.10
2018-12-16T05:37:59.876Z,35.00
2018-12-16T05:40:28.303Z,37.13
2018-12-16T05:42:56.570Z,34.90
2018-12-16T05:45:24.824Z,36.40
2018-12-16T05:47:53.124Z,35.90
2018-12-16T05:50:21.372Z,35.40
2018-12-16T05:52:49.692Z,34.70
2018-12-16T05:55:17.920Z,36.07
2018-12-16T05:57:46.116Z,35.83
2018-12-16T06:00:14.400Z,34.80
2018-12-16T06:02:42.700Z,33.40
2018-12-16T06:05:10.970Z,36.10
2018-12-16T06:07:39.284Z,35.30
2018-12-16T06:10:07.681Z,36.77
2018-12-16T06:12:36.004Z,37.13
2018-12-16T06:15:04.457Z,35.43
2018-12-16T06:17:32.719Z,35.00
2018-12-16T06:20:01.024Z,37.03
2018-12-16T06:22:29.260Z,35.70
2018-12-16T06:24:57.576Z,33.80
2018-12-16T06:27:25.816Z,34.50
2018-12-16T06:29:54.461Z,33.87
2018-12-16T06:32:22.785Z,34.67
2018-12-16T06:34:51.052Z,34.77
2018-12-16T06:37:19.272Z,33.97
2018-12-16T06:39:47.541Z,35.03
2018-12-16T06:42:15.788Z,35.67
2018-12-16T06:44:44.028Z,34.30
2018-12-16T06:47:12.232Z,33.90
2018-12-16T06:49:40.424Z,34.00
2018-12-16T06:52:08.717Z,35.53
2018-12-16T06:54:37.137Z,35.23
2018-12-16T06:57:05.345Z,31.90
2018-12-16T06:59:33.624Z,34.73
2018-12-16T07:02:01.958Z,34.70
2018-12-16T07:04:30.233Z,35.80
2018-12-16T07:06:58.454Z,34.90
2018-12-16T07:09:26.768Z,35.80
2018-12-16T07:11:55.006Z,38.33
2018-12-16T07:14:23.268Z,33.53
2018-12-16T07:16:51.608Z,34.87
2018-12-16T07:19:19.971Z,34.77
2018-12-16T07:21:48.267Z,35.10
2018-12-16T07:24:16.494Z,37.03
2018-12-16T07:26:44.797Z,35.93
2018-12-16T07:29:13.034Z,35.90
2018-12-16T07:31:41.352Z,37.47
2018-12-16T07:34:09.657Z,33.47
2018-12-16T07:36:37.964Z,36.30
2018-12-16T07:39:07.812Z,34.37
2018-12-16T07:41:36.226Z,36.97
2018-12-16T07:44:04.635Z,36.60
2018-12-16T07:46:32.988Z,34.43
2018-12-16T07:49:01.272Z,34.93
2018-12-16T07:51:29.586Z,35.17
2018-12-16T07:53:57.913Z,35.10
2018-12-16T07:56:26.318Z,36.80
2018-12-16T07:58:54.720Z,36.60
2018-12-16T08:01:23.052Z,34.57
2018-12-16T08:03:51.407Z,37.40
2018-12-16T08:06:19.782Z,37.17
2018-12-16T08:08:48.061Z,35.77
2018-12-16T08:11:16.280Z,34.87
2018-12-16T08:13:44.641Z,34.67
2018-12-16T08:16:12.863Z,33.67
2018-12-16T08:18:41.120Z,32.70
2018-12-16T08:21:09.356Z,34.70
2018-12-16T08:23:37.606Z,33.50
2018-12-16T08:26:06.008Z,33.83
2018-12-16T08:28:34.220Z,35.77
2018-12-16T08:31:02.577Z,33.30
2018-12-16T08:33:30.925Z,31.50
2018-12-16T08:35:59.096Z,31.27
2018-12-16T08:38:27.380Z,32.77
2018-12-16T08:40:55.613Z,32.70
2018-12-16T08:43:23.929Z,31.33
2018-12-16T08:45:52.165Z,32.37
2018-12-16T08:48:20.378Z,33.17
2018-12-16T08:50:48.652Z,34.97
2018-12-16T08:53:16.920Z,33.87
2018-12-16T08:55:45.310Z,31.43
2018-12-16T08:58:13.553Z,30.37
2018-12-16T09:00:41.861Z,32.00
2018-12-16T09:03:11.236Z,33.07
2018-12-16T09:05:39.557Z,35.50
2018-12-16T09:08:07.780Z,29.90
2018-12-16T09:10:36.068Z,29.70
2018-12-16T09:13:04.486Z,31.87
2018-12-16T09:15:32.704Z,32.50
2018-12-16T09:18:00.986Z,31.93
2018-12-16T09:20:29.249Z,31.70
2018-12-16T09:22:57.578Z,33.87
2018-12-16T09:25:25.812Z,31.57
2018-12-16T09:27:54.121Z,32.67
2018-12-16T09:30:22.356Z,30.97
2018-12-16T09:32:50.784Z,31.40
2018-12-16T09:35:19.028Z,32.37
2018-12-16T09:37:47.292Z,32.07
2018-12-16T09:40:15.744Z,32.13
2018-12-16T09:42:43.968Z,31.37
2018-12-16T09:45:12.226Z,31.47
2018-12-16T09:47:40.865Z,32.90
2018-12-16T09:50:09.276Z,34.13
2018-12-16T09:52:37.513Z,30.07
2018-12-16T09:55:27.180Z,31.73
2018-12-16T09:57:55.464Z,32.07
2018-12-16T10:00:23.632Z,30.80
2018-12-16T10:02:51.871Z,31.67
2018-12-16T10:05:20.190Z,32.50
2018-12-16T10:07:48.462Z,31.93
2018-12-16T10:10:16.708Z,32.43
2018-12-16T10:12:44.980Z,33.03
2018-12-16T10:15:13.256Z,34.73
2018-12-16T10:17:42.496Z,32.53
2018-12-16T10:20:11.768Z,34.93
2018-12-16T10:22:40.008Z,33.43
2018-12-16T10:25:08.410Z,34.23
2018-12-16T10:27:36.725Z,35.03
2018-12-16T10:30:06.831Z,35.20
2018-12-16T10:32:35.078Z,34.60
2018-12-16T10:35:03.501Z,36.50
2018-12-16T10:37:31.788Z,36.17
2018-12-16T10:40:00.259Z,35.80
2018-12-16T10:42:28.500Z,30.73
2018-12-16T10:44:56.776Z,32.30
2018-12-16T10:47:24.970Z,33.60
2018-12-16T10:49:53.257Z,30.00
2018-12-16T10:52:21.504Z,33.60
2018-12-16T10:54:49.810Z,41.67
2018-12-16T10:57:18.043Z,34.83
2018-12-16T10:59:46.308Z,31.37
2018-12-16T11:02:14.496Z,30.30
2018-12-16T11:04:42.797Z,30.20
2018-12-16T11:07:11.087Z,32.07
2018-12-16T11:09:39.367Z,32.67
2018-12-16T11:12:07.760Z,29.37
2018-12-16T11:14:36.005Z,30.30
2018-12-16T11:17:04.404Z,31.17
2018-12-16T11:19:32.793Z,32.17
2018-12-16T11:22:01.017Z,30.53
2018-12-16T11:24:29.292Z,30.20
2018-12-16T11:26:57.613Z,29.70
2018-12-16T11:29:25.887Z,29.50
2018-12-16T11:31:54.132Z,28.97
2018-12-16T11:34:22.668Z,28.90
2018-12-16T11:36:51.005Z,28.20
2018-12-16T11:39:19.436Z,28.57
2018-12-16T11:41:47.682Z,28.93
2018-12-16T11:44:15.883Z,27.63
2018-12-16T11:46:44.132Z,27.90
2018-12-16T11:49:12.356Z,27.70
2018-12-16T11:51:41.008Z,27.23
2018-12-16T11:54:09.224Z,28.40
2018-12-16T11:56:37.560Z,27.30
2018-12-16T11:59:05.764Z,28.27
2018-12-16T12:01:33.993Z,28.00
2018-12-16T12:04:04.838Z,26.70
2018-12-16T12:06:33.065Z,26.40
2018-12-16T12:09:01.363Z,27.60
2018-12-16T12:11:29.656Z,26.57
2018-12-16T12:13:57.933Z,28.00
2018-12-16T12:16:26.223Z,27.40
2018-12-16T12:19:00.959Z,27.33
2018-12-16T12:21:29.348Z,28.00
2018-12-16T12:23:57.800Z,27.57
2018-12-16T12:26:26.077Z,26.47
2018-12-16T12:28:54.295Z,28.57
2018-12-16T12:31:22.484Z,25.90
2018-12-16T12:33:50.760Z,27.67
2018-12-16T12:36:19.108Z,26.87
2018-12-16T12:38:47.472Z,27.07
2018-12-16T12:41:15.693Z,25.50
2018-12-16T12:43:44.025Z,29.03
2018-12-16T12:46:12.252Z,26.93
2018-12-16T12:48:40.558Z,31.07
2018-12-16T12:51:08.808Z,29.50
2018-12-16T12:53:37.211Z,28.53
2018-12-16T12:56:05.598Z,26.97
2018-12-16T12:58:33.875Z,25.80
2018-12-16T13:01:02.132Z,27.80
2018-12-16T13:03:30.462Z,28.20
2018-12-16T13:05:58.710Z,27.73
2018-12-16T13:08:27.004Z,28.20
2018-12-16T13:10:55.268Z,26.17
2018-12-16T13:13:23.636Z,27.03
2018-12-16T13:15:51.809Z,27.63
2018-12-16T13:18:20.056Z,30.57
2018-12-16T13:20:48.357Z,34.90
2018-12-16T13:23:16.560Z,28.23
2018-12-16T13:25:56.114Z,28.57
2018-12-16T13:28:24.472Z,25.63
2018-12-16T13:30:52.824Z,30.20
2018-12-16T13:33:21.112Z,27.80
2018-12-16T13:35:49.345Z,28.17
2018-12-16T13:38:17.668Z,26.30
2018-12-16T13:40:45.906Z,28.87
2018-12-16T13:43:14.185Z,27.37
2018-12-16T13:45:42.483Z,25.90
2018-12-16T13:48:10.733Z,28.23
2018-12-16T13:50:39.113Z,25.07
2018-12-16T13:53:07.388Z,26.03
2018-12-16T13:55:40.894Z,27.33
2018-12-16T13:58:05.876Z,28.27
2018-12-16T14:00:34.110Z,27.40
2018-12-16T14:03:02.304Z,27.90
2018-12-16T14:05:30.496Z,27.37
2018-12-16T14:07:58.738Z,26.37
2018-12-16T14:10:27.068Z,27.03
2018-12-16T14:12:55.308Z,26.70
2018-12-16T14:15:23.616Z,27.07
2018-12-16T14:17:51.933Z,26.93
2018-12-16T14:20:20.208Z,28.40
2018-12-16T14:22:48.556Z,29.37
2018-12-16T14:25:16.892Z,29.87
2018-12-16T14:27:45.205Z,29.00
2018-12-16T14:30:13.579Z,29.37
2018-12-16T14:32:42.226Z,30.53
2018-12-16T14:35:11.220Z,34.30
2018-12-16T14:37:39.441Z,33.97
2018-12-16T14:40:09.607Z,35.27
2018-12-16T14:42:38.020Z,31.57
2018-12-16T14:45:08.097Z,29.83
2018-12-16T14:47:36.286Z,29.73
2018-12-16T14:50:06.200Z,28.13
2018-12-16T14:52:34.555Z,30.47
2018-12-16T14:55:02.936Z,31.73
2018-12-16T14:57:31.131Z,30.00
2018-12-16T14:59:59.393Z,31.40
2018-12-16T15:02:27.671Z,30.00
2018-12-16T15:04:55.860Z,30.67
2018-12-16T15:07:24.063Z,28.90
2018-12-16T15:09:52.300Z,31.60
2018-12-16T15:12:20.572Z,30.70
2018-12-16T15:14:48.941Z,30.50
2018-12-16T15:17:17.212Z,30.80
2018-12-16T15:19:45.443Z,29.20
2018-12-16T15:22:13.764Z,29.27
2018-12-16T15:24:42.048Z,28.00
2018-12-16T15:27:10.237Z,31.47
2018-12-16T15:29:38.447Z,31.00
2018-12-16T15:32:06.774Z,30.77
2018-12-16T15:34:35.053Z,29.70
2018-12-16T15:37:03.292Z,31.33
2018-12-16T15:39:31.601Z,32.37
2018-12-16T15:41:59.868Z,32.30
2018-12-16T15:44:28.164Z,32.90
2018-12-16T15:46:56.345Z,30.87
2018-12-16T15:49:24.605Z,33.67
2018-12-16T15:51:52.844Z,32.23
2018-12-16T15:54:21.116Z,31.30
2018-12-16T15:56:49.405Z,30.70
2018-12-16T15:59:17.783Z,30.83
2018-12-16T16:01:46.097Z,29.83
2018-12-16T16:04:14.368Z,32.43
2018-12-16T16:06:42.592Z,31.27
2018-12-16T16:09:10.899Z,31.50
2018-12-16T16:11:40.668Z,31.10
2018-12-16T16:14:09.004Z,29.97
2018-12-16T16:16:37.396Z,30.57
2018-12-16T16:19:05.766Z,30.90
2018-12-16T16:21:34.116Z,29.50
2018-12-16T16:24:02.377Z,31.60
2018-12-16T16:26:30.805Z,33.90
2018-12-16T16:28:59.022Z,30.97
2018-12-16T16:31:27.265Z,31.30
2018-12-16T16:33:55.476Z,31.33
2018-12-16T16:36:23.708Z,30.60
2018-12-16T16:38:51.948Z,32.33
2018-12-16T16:41:20.273Z,31.20
2018-12-16T16:43:48.505Z,33.33
2018-12-16T16:46:16.937Z,29.80
2018-12-16T16:48:45.910Z,31.00
2018-12-16T16:51:14.093Z,32.00
2018-12-16T16:53:42.387Z,30.57
2018-12-16T16:56:10.727Z,31.20
2018-12-16T16:58:38.908Z,30.13
2018-12-16T17:01:07.089Z,34.87
2018-12-16T17:03:35.292Z,30.27
2018-12-16T17:06:03.476Z,30.93
2018-12-16T17:08:31.721Z,31.00
2018-12-16T17:11:00.101Z,30.70
2018-12-16T17:13:28.321Z,29.40
2018-12-16T17:15:56.523Z,31.83
2018-12-16T17:18:24.721Z,31.60
2018-12-16T17:20:52.931Z,32.73
2018-12-16T17:23:21.124Z,31.00
2018-12-16T17:25:49.344Z,32.97
2018-12-16T17:28:17.532Z,31.20
2018-12-16T17:30:45.700Z,29.00
2018-12-16T17:33:14.797Z,32.47
2018-12-16T17:35:43.015Z,31.57
2018-12-16T17:38:11.184Z,31.33
2018-12-16T17:40:39.408Z,33.47
2018-12-16T17:43:07.627Z,32.57
2018-12-16T17:45:35.857Z,30.20
2018-12-16T17:48:04.206Z,32.07
2018-12-16T17:50:32.392Z,32.67
2018-12-16T17:53:00.566Z,35.03
2018-12-16T17:55:28.780Z,36.50
2018-12-16T17:57:57.079Z,34.87
2018-12-16T18:00:25.496Z,34.67
2018-12-16T18:02:53.818Z,34.17
2018-12-16T18:05:21.992Z,34.40
2018-12-16T18:07:50.220Z,35.87
2018-12-16T18:10:18.412Z,34.27
2018-12-16T18:12:46.588Z,37.57
2018-12-16T18:15:14.804Z,34.73
2018-12-16T18:17:43.104Z,36.97
2018-12-16T18:20:11.464Z,35.30
2018-12-16T18:22:39.681Z,37.93
2018-12-16T18:25:07.961Z,35.83
2018-12-16T18:27:36.176Z,36.23
2018-12-16T18:30:05.804Z,35.93
2018-12-16T18:32:33.992Z,89.07
2018-12-16T18:35:02.187Z,53.77
2018-12-16T18:37:30.497Z,39.13
2018-12-16T18:39:58.780Z,38.43
2018-12-16T18:42:27.007Z,40.03
2018-12-16T18:44:55.192Z,40.47
2018-12-16T18:47:23.472Z,38.03
2018-12-16T18:49:51.690Z,46.20
2018-12-16T18:52:19.873Z,41.70
2018-12-16T18:54:48.064Z,35.97
2018-12-16T18:57:16.336Z,35.50
2018-12-16T18:59:44.514Z,38.00
2018-12-16T19:02:12.677Z,37.80
2018-12-16T19:04:40.884Z,38.10
2018-12-16T19:07:09.061Z,38.80
2018-12-16T19:09:37.281Z,39.47
2018-12-16T19:12:05.492Z,41.00
2018-12-16T19:14:34.064Z,37.10
2018-12-16T19:17:02.393Z,37.73
2018-12-16T19:19:30.565Z,40.43
2018-12-16T19:21:58.824Z,39.27
2018-12-16T19:24:27.032Z,37.60
2018-12-16T19:26:58.445Z,40.57
2018-12-16T19:29:25.421Z,41.60
2018-12-16T19:31:53.709Z,38.23
2018-12-16T19:34:21.913Z,41.40
2018-12-16T19:36:50.146Z,38.80
2018-12-16T19:39:18.327Z,37.60
2018-12-16T19:41:46.544Z,39.43
2018-12-16T19:44:14.760Z,37.83
2018-12-16T19:46:42.952Z,39.40
2018-12-16T19:49:11.184Z,39.47
2018-12-16T19:51:39.380Z,37.90
2018-12-16T19:54:07.592Z,40.20
2018-12-16T19:56:35.875Z,39.17
2018-12-16T19:59:04.425Z,37.67
2018-12-16T20:01:32.604Z,39.87
2018-12-16T20:04:06.151Z,39.10
2018-12-16T20:06:39.540Z,41.10
2018-12-16T20:09:07.980Z,38.80
2018-12-16T20:11:36.202Z,40.30
2018-12-16T20:14:04.597Z,40.80
2018-12-16T20:16:32.821Z,40.27
2018-12-16T20:19:00.992Z,39.27
2018-12-16T20:21:29.172Z,37.03
2018-12-16T20:23:57.376Z,43.53
2018-12-16T20:26:25.601Z,41.00
2018-12-16T20:28:53.767Z,40.10
2018-12-16T20:31:21.971Z,40.13
2018-12-16T20:33:50.200Z,39.37
2018-12-16T20:36:18.488Z,37.63
2018-12-16T20:38:46.691Z,39.03
2018-12-16T20:41:14.903Z,39.77
2018-12-16T20:43:44.019Z,39.90
2018-12-16T20:46:12.243Z,39.13
2018-12-16T20:48:40.429Z,40.20
2018-12-16T20:51:08.621Z,43.37
2018-12-16T20:53:36.841Z,38.30
2018-12-16T20:56:05.021Z,40.13
2018-12-16T20:58:33.235Z,38.73
2018-12-16T21:01:01.540Z,44.00
2018-12-16T21:03:29.864Z,41.30
2018-12-16T21:05:58.070Z,42.33
2018-12-16T21:08:26.296Z,41.93
2018-12-16T21:10:54.468Z,39.03
2018-12-16T21:13:28.081Z,41.43
2018-12-16T21:16:01.598Z,43.57
2018-12-16T21:18:31.860Z,43.00
2018-12-16T21:21:00.071Z,41.90
2018-12-16T21:23:28.284Z,40.90
2018-12-16T21:25:56.500Z,42.00
2018-12-16T21:28:24.680Z,41.80
2018-12-16T21:30:52.931Z,44.30
2018-12-16T21:33:21.162Z,43.93
2018-12-16T21:35:49.421Z,44.43
2018-12-16T21:38:17.653Z,43.90
2018-12-16T21:40:45.852Z,41.40
2018-12-16T21:43:14.059Z,40.57
2018-12-16T21:45:42.488Z,41.60
2018-12-16T21:48:10.658Z,40.30
2018-12-16T21:50:38.860Z,38.90
2018-12-16T21:53:07.042Z,41.80
2018-12-16T21:55:35.344Z,40.67
2018-12-16T21:58:03.529Z,40.63
2018-12-16T22:00:31.748Z,40.60
2018-12-16T22:02:59.930Z,41.13
2018-12-16T22:05:31.020Z,42.60
2018-12-16T22:07:59.548Z,41.60
2018-12-16T22:10:27.769Z,39.57
2018-12-16T22:12:55.940Z,43.87
2018-12-16T22:15:24.289Z,47.30
2018-12-16T22:17:52.467Z,43.37
2018-12-16T22:20:20.648Z,39.13
2018-12-16T22:22:48.859Z,40.97
2018-12-16T22:25:17.079Z,42.20
2018-12-16T22:27:45.328Z,41.40
2018-12-16T22:30:13.504Z,42.90
2018-12-16T22:32:41.685Z,39.30
2018-12-16T22:35:10.012Z,41.40
2018-12-16T22:37:38.192Z,43.23
2018-12-16T22:40:07.064Z,43.40
2018-12-16T22:42:35.235Z,43.77
2018-12-16T22:45:03.772Z,43.40
2018-12-16T22:47:31.956Z,42.60
2018-12-16T22:50:00.249Z,42.20
2018-12-16T22:52:28.485Z,41.07
2018-12-16T22:54:56.707Z,41.00
2018-12-16T22:57:24.891Z,45.43
2018-12-16T22:59:53.100Z,44.77
2018-12-16T23:02:21.328Z,42.97
2018-12-16T23:04:49.504Z,41.63
2018-12-16T23:07:17.751Z,43.23
2018-12-16T23:09:45.944Z,41.70
2018-12-16T23:12:14.169Z,36.83
2018-12-16T23:14:42.484Z,41.27
2018-12-16T23:17:10.702Z,42.90
2018-12-16T23:19:38.924Z,38.50
2018-12-16T23:22:07.206Z,41.70
2018-12-16T23:24:35.732Z,42.83
2018-12-16T23:27:03.919Z,40.60
2018-12-16T23:29:32.156Z,42.93
2018-12-16T23:32:00.332Z,40.80
2018-12-16T23:34:28.516Z,42.63
2018-12-16T23:36:56.781Z,39.43
2018-12-16T23:39:24.952Z,42.17
2018-12-16T23:41:53.129Z,41.00
2018-12-16T23:44:21.340Z,40.50
2018-12-16T23:46:49.537Z,41.83
2018-12-16T23:49:17.752Z,44.07
2018-12-16T23:51:45.964Z,39.73
2018-12-16T23:54:14.150Z,40.17
2018-12-16T23:56:42.444Z,40.07
2018-12-16T23:59:10.625Z,41.60
